Time;durP1;ratioP1;P1;durP2;ratioP2;P2;SDS_P1;SDS_P2;PMS_P1;PMS_P2;Temp;Humidity;BMP_temperature;BMP_pressure;BME280_temperature;BME280_humidity;BME280_pressure;Samples;Min_cycle;Max_cycle;Signal;HPM_P1;HPM_P2
2023/07/27 00:01:52;;;;;;;5.93;2.13;;;;;;;15.85;100.00;99659.63;5027501;28;20404;-67
2023/07/27 00:04:22;;;;;;;8.00;2.08;;;;;;;15.81;100.00;99652.88;5029568;28;20049;-68
2023/07/27 00:06:49;;;;;;;5.68;2.60;;;;;;;15.81;100.00;99648.47;5029238;28;20045;-69
2023/07/27 00:09:15;;;;;;;5.85;1.98;;;;;;;15.83;100.00;99648.31;5016449;28;20403;-69
2023/07/27 00:11:42;;;;;;;6.28;1.65;;;;;;;15.77;100.00;99643.53;5019653;28;20049;-69
2023/07/27 00:14:08;;;;;;;6.57;1.70;;;;;;;15.90;100.00;99642.47;5027783;28;20056;-67
2023/07/27 00:16:35;;;;;;;6.28;1.90;;;;;;;15.87;100.00;99632.16;5029285;28;20049;-67
2023/07/27 00:19:02;;;;;;;7.32;1.95;;;;;;;15.92;100.00;99629.16;5025656;28;20049;-68
2023/07/27 00:21:29;;;;;;;7.22;2.08;;;;;;;16.06;100.00;99636.84;5025769;28;20052;-67
2023/07/27 00:23:56;;;;;;;5.32;1.85;;;;;;;15.89;100.00;99632.03;5029293;28;20049;-68
2023/07/27 00:26:22;;;;;;;8.75;2.17;;;;;;;15.85;100.00;99628.78;5029712;28;20384;-68
2023/07/27 00:28:49;;;;;;;4.90;1.60;;;;;;;15.91;100.00;99640.66;5026939;28;20412;-67
2023/07/27 00:31:15;;;;;;;5.70;2.08;;;;;;;15.97;100.00;99607.66;5026562;28;20061;-68
2023/07/27 00:33:42;;;;;;;7.57;1.95;;;;;;;16.07;100.00;99622.66;5027529;28;20056;-67
2023/07/27 00:36:09;;;;;;;7.97;1.90;;;;;;;16.04;100.00;99607.09;5029038;28;20049;-67
2023/07/27 00:38:35;;;;;;;8.05;1.90;;;;;;;16.07;100.00;99609.47;5028649;28;20057;-68
2023/07/27 00:41:02;;;;;;;10.43;2.38;;;;;;;16.00;100.00;99603.00;5023647;28;20050;-67
2023/07/27 00:43:29;;;;;;;5.40;1.65;;;;;;;15.91;100.00;99599.25;5029171;28;20056;-67
2023/07/27 00:45:57;;;;;;;5.32;1.80;;;;;;;15.87;100.00;99605.75;5028758;28;20054;-68
2023/07/27 00:48:24;;;;;;;6.55;1.70;;;;;;;15.87;100.00;99602.28;5029044;28;20058;-67
2023/07/27 00:50:51;;;;;;;7.93;2.10;;;;;;;15.75;100.00;99589.06;5027269;28;20041;-67
2023/07/27 00:53:18;;;;;;;8.13;2.55;;;;;;;15.80;100.00;99594.00;5029061;28;20045;-68
2023/07/27 00:55:46;;;;;;;9.60;2.35;;;;;;;15.63;100.00;99589.16;5028717;28;20144;-68
2023/07/27 00:58:13;;;;;;;9.10;2.42;;;;;;;15.75;100.00;99586.41;5028349;28;20052;-69
2023/07/27 01:00:44;;;;;;;10.85;2.40;;;;;;;15.83;100.00;99583.19;5024360;28;20271;-68
2023/07/27 01:03:10;;;;;;;7.43;1.70;;;;;;;15.83;100.00;99587.63;5017280;28;20053;-68
2023/07/27 01:05:37;;;;;;;9.27;2.35;;;;;;;15.88;100.00;99581.06;5016621;28;20085;-68
2023/07/27 01:08:04;;;;;;;8.43;2.15;;;;;;;15.84;100.00;99584.03;5027990;28;20049;-68
2023/07/27 01:10:45;;;;;;;7.13;2.30;;;;;;;15.73;100.00;99579.56;5026646;28;20053;-68
2023/07/27 01:13:28;;;;;;;8.70;2.13;;;;;;;15.80;100.00;99574.69;5027935;28;20145;-68
2023/07/27 01:16:02;;;;;;;8.07;2.25;;;;;;;15.71;100.00;99571.75;5029188;28;20041;-68
2023/07/27 01:18:38;;;;;;;8.38;2.35;;;;;;;15.90;100.00;99570.34;5019129;28;20049;-68
2023/07/27 01:21:19;;;;;;;7.00;2.10;;;;;;;15.81;100.00;99569.28;5019857;28;20049;-68
2023/07/27 01:24:20;;;;;;;9.95;2.58;;;;;;;15.84;100.00;99570.84;5024582;28;20175;-68
2023/07/27 01:27:08;;;;;;;5.68;1.85;;;;;;;15.81;100.00;99558.75;5025945;28;20046;-68
2023/07/27 01:29:53;;;;;;;9.70;2.53;;;;;;;15.69;100.00;99555.22;5030105;28;20056;-68
2023/07/27 01:32:22;;;;;;;5.18;1.75;;;;;;;15.70;100.00;99550.75;5032134;28;20056;-68
2023/07/27 01:34:54;;;;;;;8.82;2.28;;;;;;;15.79;100.00;99565.91;5032661;28;20514;-68
2023/07/27 01:37:22;;;;;;;7.43;2.10;;;;;;;15.75;100.00;99549.47;5032423;28;20046;-68
2023/07/27 01:39:52;;;;;;;5.97;2.05;;;;;;;15.85;100.00;99554.06;5030986;28;20392;-68
2023/07/27 01:42:19;;;;;;;6.53;2.33;;;;;;;15.83;100.00;99534.84;5027633;28;20081;-68
2023/07/27 01:44:47;;;;;;;7.00;2.13;;;;;;;15.80;100.00;99549.13;5031883;28;20053;-68
2023/07/27 01:47:16;;;;;;;6.57;2.10;;;;;;;15.75;100.00;99538.91;5031743;28;20567;-68
2023/07/27 01:49:45;;;;;;;6.90;2.10;;;;;;;15.85;100.00;99531.13;5024257;28;20092;-68
2023/07/27 01:52:15;;;;;;;10.40;2.80;;;;;;;15.81;100.00;99534.13;5026392;28;20049;-68
2023/07/27 01:54:41;;;;;;;9.52;2.10;;;;;;;15.94;100.00;99532.22;5031720;28;20041;-68
2023/07/27 01:57:09;;;;;;;14.10;3.10;;;;;;;15.84;100.00;99525.97;5031668;28;20056;-68
2023/07/27 01:59:37;;;;;;;9.68;2.13;;;;;;;15.83;100.00;99519.00;5031175;28;20046;-68
2023/07/27 02:02:05;;;;;;;8.88;2.10;;;;;;;15.79;100.00;99525.50;5026035;28;20045;-68
2023/07/27 02:04:32;;;;;;;9.43;2.47;;;;;;;15.79;100.00;99518.41;5007588;28;20107;-68
2023/07/27 02:06:59;;;;;;;11.80;3.00;;;;;;;15.64;100.00;99507.22;5027935;28;20067;-68
2023/07/27 02:09:25;;;;;;;8.15;2.25;;;;;;;15.74;100.00;99505.59;5013946;28;20467;-68
2023/07/27 02:12:00;;;;;;;8.23;2.30;;;;;;;15.77;100.00;99516.84;5023141;28;20049;-68
2023/07/27 02:14:32;;;;;;;8.77;2.33;;;;;;;15.82;100.00;99507.63;5000325;28;20060;-68
2023/07/27 02:17:10;;;;;;;10.95;2.60;;;;;;;15.71;100.00;99507.59;5013501;28;20430;-68
2023/07/27 02:19:39;;;;;;;11.88;2.97;;;;;;;15.70;100.00;99498.00;5030085;28;20053;-69
2023/07/27 02:22:09;;;;;;;9.75;2.72;;;;;;;15.63;100.00;99495.00;5020044;28;20049;-69
2023/07/27 02:24:36;;;;;;;12.15;2.95;;;;;;;15.76;100.00;99492.28;5027000;28;20049;-69
2023/07/27 02:27:04;;;;;;;8.60;2.15;;;;;;;15.86;100.00;99489.72;5028520;28;20056;-69
2023/07/27 02:29:31;;;;;;;10.70;2.60;;;;;;;15.82;100.00;99498.88;5029976;28;20049;-68
2023/07/27 02:31:57;;;;;;;10.27;2.70;;;;;;;15.72;100.00;99480.22;5024057;28;20057;-68
2023/07/27 02:34:24;;;;;;;7.78;2.53;;;;;;;15.62;100.00;99479.31;5022873;28;20419;-68
2023/07/27 02:36:51;;;;;;;8.85;2.60;;;;;;;15.70;100.00;99485.63;5030909;28;20396;-68
2023/07/27 02:39:17;;;;;;;9.57;2.70;;;;;;;15.66;100.00;99484.19;5031474;28;20054;-67
2023/07/27 02:41:44;;;;;;;11.80;2.78;;;;;;;15.78;100.00;99481.59;5012499;28;20054;-68
2023/07/27 02:44:10;;;;;;;14.10;2.83;;;;;;;15.83;100.00;99471.50;5026823;28;20048;-68
2023/07/27 02:46:37;;;;;;;12.68;3.35;;;;;;;15.75;100.00;99464.19;5022889;28;20049;-67
2023/07/27 02:49:04;;;;;;;9.25;2.15;;;;;;;15.80;100.00;99462.03;5022309;28;20057;-68
2023/07/27 02:51:31;;;;;;;11.75;2.80;;;;;;;15.68;100.00;99457.69;5023147;28;20048;-68
2023/07/27 02:53:57;;;;;;;9.80;2.78;;;;;;;15.61;100.00;99452.06;5013510;28;20419;-68
2023/07/27 02:56:24;;;;;;;8.27;2.45;;;;;;;15.79;100.00;99451.59;5030785;28;20365;-68
2023/07/27 02:58:51;;;;;;;8.65;2.83;;;;;;;15.77;100.00;99453.53;5029708;28;20149;-68
2023/07/27 03:01:18;;;;;;;9.43;2.92;;;;;;;15.74;100.00;99447.53;5023879;28;20052;-68
2023/07/27 03:03:45;;;;;;;9.80;3.03;;;;;;;15.80;100.00;99454.13;5021875;28;20524;-68
2023/07/27 03:06:11;;;;;;;13.95;3.40;;;;;;;15.59;100.00;99442.59;5027022;28;20049;-68
2023/07/27 03:08:38;;;;;;;10.38;2.90;;;;;;;15.66;100.00;99439.34;5029097;28;20060;-68
2023/07/27 03:11:05;;;;;;;14.95;3.83;;;;;;;15.79;100.00;99441.88;5023496;28;20061;-68
2023/07/27 03:13:32;;;;;;;10.27;2.67;;;;;;;15.81;100.00;99442.63;5029725;28;20136;-68
2023/07/27 03:16:02;;;;;;;13.85;3.75;;;;;;;15.70;100.00;99432.84;5029682;28;20060;-69
2023/07/27 03:18:29;;;;;;;8.57;2.70;;;;;;;15.60;100.00;99431.06;5016864;28;20531;-68
2023/07/27 03:20:55;;;;;;;10.15;2.92;;;;;;;15.57;100.00;99432.16;5023465;28;20046;-69
2023/07/27 03:23:22;;;;;;;13.35;2.95;;;;;;;15.56;100.00;99433.13;5024505;28;20057;-68
2023/07/27 03:25:49;;;;;;;11.63;2.90;;;;;;;15.66;100.00;99418.25;5030533;28;20049;-69
2023/07/27 03:28:15;;;;;;;7.85;2.53;;;;;;;15.65;100.00;99413.94;5029888;28;20415;-69
2023/07/27 03:30:42;;;;;;;10.77;3.10;;;;;;;15.66;100.00;99427.97;5025321;28;20559;-68
2023/07/27 03:33:09;;;;;;;10.70;2.78;;;;;;;15.75;100.00;99429.91;5028307;28;20057;-68
2023/07/27 03:35:36;;;;;;;9.20;2.92;;;;;;;15.83;100.00;99434.53;5029776;28;20399;-68
2023/07/27 03:38:02;;;;;;;12.98;2.92;;;;;;;15.63;100.00;99407.94;5030156;28;20056;-68
2023/07/27 03:40:29;;;;;;;12.40;2.92;;;;;;;15.64;100.00;99425.44;5009927;28;20602;-68
2023/07/27 03:42:56;;;;;;;16.20;2.90;;;;;;;15.60;100.00;99416.09;5029645;28;20624;-69
2023/07/27 03:45:22;;;;;;;12.60;3.75;;;;;;;15.61;100.00;99420.41;5043765;28;20049;-69
2023/07/27 03:47:49;;;;;;;12.38;3.67;;;;;;;15.63;100.00;99421.13;5012822;28;20128;-69
2023/07/27 03:50:16;;;;;;;10.00;3.17;;;;;;;15.79;100.00;99425.22;5010989;28;20111;-69
2023/07/27 03:52:43;;;;;;;11.02;3.10;;;;;;;15.73;100.00;99424.69;5029240;28;20053;-69
2023/07/27 03:55:09;;;;;;;9.65;3.17;;;;;;;15.78;100.00;99427.03;5028999;28;20509;-68
2023/07/27 03:57:36;;;;;;;9.60;3.40;;;;;;;15.66;100.00;99420.88;5020111;28;20376;-69
2023/07/27 04:00:04;;;;;;;12.48;3.70;;;;;;;15.75;100.00;99421.97;5025272;28;20054;-68
2023/07/27 04:02:31;;;;;;;15.50;3.28;;;;;;;15.58;100.00;99407.44;5027000;28;20045;-69
2023/07/27 04:04:58;;;;;;;18.48;3.80;;;;;;;15.72;100.00;99423.03;5028663;28;20053;-69
2023/07/27 04:07:24;;;;;;;12.48;3.03;;;;;;;15.66;100.00;99417.41;5029322;28;20060;-68
2023/07/27 04:09:51;;;;;;;15.20;4.22;;;;;;;15.72;100.00;99419.53;5028018;28;20402;-69
2023/07/27 04:12:18;;;;;;;13.05;3.80;;;;;;;15.68;100.00;99416.31;5022966;28;20058;-69
2023/07/27 04:14:44;;;;;;;11.85;3.33;;;;;;;15.69;100.00;99419.81;5028504;28;20406;-69
2023/07/27 04:17:11;;;;;;;12.95;3.45;;;;;;;15.73;100.00;99421.25;5029351;28;20483;-69
2023/07/27 04:19:38;;;;;;;13.68;3.92;;;;;;;15.70;100.00;99426.75;5029061;28;20053;-68
2023/07/27 04:22:04;;;;;;;18.58;3.65;;;;;;;15.69;100.00;99419.81;5026070;28;20140;-69
2023/07/27 04:24:31;;;;;;;15.13;3.53;;;;;;;15.66;100.00;99417.41;5028792;28;20049;-68
2023/07/27 04:26:58;;;;;;;13.52;3.40;;;;;;;15.72;100.00;99428.31;5029241;28;20065;-69
2023/07/27 04:29:24;;;;;;;12.25;3.40;;;;;;;15.74;100.00;99429.06;5028542;28;20061;-69
2023/07/27 04:31:51;;;;;;;10.25;3.30;;;;;;;15.83;100.00;99426.63;5023278;28;20498;-68
2023/07/27 04:34:18;;;;;;;15.45;3.95;;;;;;;15.86;100.00;99427.22;5013977;28;20057;-69
2023/07/27 04:36:47;;;;;;;16.75;4.32;;;;;;;15.81;100.00;99428.56;5021502;28;20053;-69
2023/07/27 04:39:15;;;;;;;11.52;3.28;;;;;;;15.84;100.00;99415.97;5028097;28;20534;-69
2023/07/27 04:41:41;;;;;;;13.93;3.72;;;;;;;15.78;100.00;99423.56;5023192;28;20467;-68
2023/07/27 04:44:08;;;;;;;14.73;4.40;;;;;;;15.72;100.00;99420.41;5028068;28;20084;-68
2023/07/27 04:46:35;;;;;;;12.50;4.25;;;;;;;15.84;100.00;99420.41;5020595;28;20414;-69
2023/07/27 04:49:02;;;;;;;17.15;4.07;;;;;;;15.87;100.00;99428.91;5023280;28;20132;-69
2023/07/27 04:51:29;;;;;;;15.50;4.35;;;;;;;15.91;100.00;99417.13;5011560;28;20387;-69
2023/07/27 04:53:55;;;;;;;17.95;4.32;;;;;;;15.91;100.00;99416.31;5032226;28;20478;-69
2023/07/27 04:56:22;;;;;;;14.43;3.55;;;;;;;15.97;100.00;99420.25;5032973;28;20145;-68
2023/07/27 04:58:49;;;;;;;12.88;3.97;;;;;;;15.85;100.00;99422.09;5032439;28;20053;-68
2023/07/27 05:01:16;;;;;;;16.52;3.85;;;;;;;15.96;100.00;99411.50;5026635;28;20046;-68
2023/07/27 05:03:43;;;;;;;15.23;3.63;;;;;;;15.99;100.00;99427.09;5032613;28;20057;-68
2023/07/27 05:06:10;;;;;;;13.07;4.10;;;;;;;15.92;100.00;99424.09;5033250;28;20072;-68
2023/07/27 05:08:36;;;;;;;13.93;4.07;;;;;;;16.05;100.00;99423.94;5014849;28;20046;-68
2023/07/27 05:11:05;;;;;;;16.70;4.85;;;;;;;15.93;100.00;99424.94;5022728;28;20403;-69
2023/07/27 05:13:33;;;;;;;12.75;3.42;;;;;;;16.00;100.00;99426.09;5014088;28;20056;-69
2023/07/27 05:16:01;;;;;;;18.73;4.35;;;;;;;15.98;100.00;99427.22;5032907;28;20053;-69
2023/07/27 05:18:28;;;;;;;19.23;4.60;;;;;;;16.02;100.00;99426.00;5033746;28;20045;-68
2023/07/27 05:20:56;;;;;;;11.70;4.10;;;;;;;15.93;100.00;99424.94;5023830;28;20042;-69
2023/07/27 05:23:22;;;;;;;12.80;3.63;;;;;;;15.94;100.00;99426.63;5030325;28;20049;-68
2023/07/27 05:25:49;;;;;;;13.88;4.40;;;;;;;15.98;100.00;99427.22;5032730;28;20052;-69
2023/07/27 05:28:17;;;;;;;19.48;5.53;;;;;;;15.87;100.00;99418.34;5032374;28;20053;-69
2023/07/27 05:30:44;;;;;;;14.30;4.60;;;;;;;15.88;100.00;99412.13;5029688;28;20053;-68
2023/07/27 05:33:10;;;;;;;12.32;4.00;;;;;;;16.01;100.00;99433.09;5018416;28;20053;-69
2023/07/27 05:35:37;;;;;;;20.05;4.57;;;;;;;16.02;100.00;99431.28;5032632;28;20051;-70
2023/07/27 05:38:04;;;;;;;13.45;4.20;;;;;;;16.12;100.00;99433.03;5014959;28;20056;-69
2023/07/27 05:40:30;;;;;;;15.40;4.95;;;;;;;16.17;100.00;99430.03;5029444;28;20392;-69
2023/07/27 05:42:57;;;;;;;16.17;5.25;;;;;;;16.09;100.00;99427.16;5032323;28;20045;-69
2023/07/27 05:45:24;;;;;;;20.27;4.95;;;;;;;16.13;100.00;99425.97;5032470;28;20053;-69
2023/07/27 05:47:50;;;;;;;19.55;5.18;;;;;;;16.07;100.00;99432.56;5032451;28;20232;-69
2023/07/27 05:50:17;;;;;;;13.30;4.20;;;;;;;15.96;100.00;99426.50;5033057;28;20111;-69
2023/07/27 05:52:44;;;;;;;13.13;4.43;;;;;;;16.04;100.00;99431.97;5029784;28;20053;-69
2023/07/27 05:55:10;;;;;;;15.80;4.57;;;;;;;16.12;100.00;99424.28;5033115;28;20570;-68
2023/07/27 05:57:37;;;;;;;18.08;5.18;;;;;;;15.93;100.00;99420.47;5030882;28;20358;-68
2023/07/27 06:00:04;;;;;;;13.48;3.95;;;;;;;16.06;100.00;99427.41;5029945;28;20057;-69
2023/07/27 06:02:33;;;;;;;10.45;3.97;;;;;;;16.30;100.00;99433.31;5028912;28;20055;-69
2023/07/27 06:05:00;;;;;;;17.42;4.53;;;;;;;16.16;100.00;99433.63;5032137;28;20418;-69
2023/07/27 06:07:27;;;;;;;11.40;4.32;;;;;;;16.23;100.00;99418.13;5032614;28;20050;-69
2023/07/27 06:09:54;;;;;;;17.38;4.75;;;;;;;16.13;100.00;99426.81;5029820;28;20049;-69
2023/07/27 06:12:20;;;;;;;19.40;5.88;;;;;;;16.05;100.00;99429.22;5020880;28;20068;-69
2023/07/27 06:14:47;;;;;;;16.15;5.13;;;;;;;15.94;100.00;99422.16;5031739;28;20136;-68
2023/07/27 06:17:13;;;;;;;13.77;4.10;;;;;;;16.12;100.00;99425.13;5013948;28;20052;-69
2023/07/27 06:19:40;;;;;;;17.85;4.35;;;;;;;16.10;100.00;99416.50;5014105;28;20502;-69
2023/07/27 06:22:07;;;;;;;13.63;4.10;;;;;;;16.16;100.00;99419.59;5029204;28;20052;-68
2023/07/27 06:24:34;;;;;;;13.88;4.57;;;;;;;16.10;100.00;99426.22;5030936;28;20056;-68
2023/07/27 06:27:01;;;;;;;21.70;5.18;;;;;;;16.10;100.00;99426.22;5031423;28;20081;-69
2023/07/27 06:29:28;;;;;;;16.92;4.68;;;;;;;16.08;100.00;99420.22;5030477;28;20450;-69
2023/07/27 06:31:54;;;;;;;19.30;5.78;;;;;;;16.05;100.00;99423.94;5027128;28;20049;-69
2023/07/27 06:34:21;;;;;;;19.52;5.63;;;;;;;16.20;100.00;99424.50;5031272;28;20140;-69
2023/07/27 06:36:48;;;;;;;13.25;3.88;;;;;;;16.25;100.00;99418.81;5043068;28;20049;-69
2023/07/27 06:39:14;;;;;;;14.23;4.03;;;;;;;16.29;100.00;99415.00;5024601;28;20050;-69
2023/07/27 06:41:41;;;;;;;16.05;4.50;;;;;;;16.24;100.00;99415.34;5027111;28;20046;-68
2023/07/27 06:44:08;;;;;;;12.85;3.55;;;;;;;16.30;100.00;99414.00;5030170;28;20588;-68
2023/07/27 06:46:35;;;;;;;14.38;4.63;;;;;;;16.29;100.00;99420.28;5030074;28;20366;-68
2023/07/27 06:49:02;;;;;;;12.48;4.50;;;;;;;16.36;100.00;99421.44;5030523;28;20049;-69
2023/07/27 06:51:29;;;;;;;18.70;4.25;;;;;;;16.32;100.00;99422.63;5012643;28;20076;-69
2023/07/27 06:53:56;;;;;;;14.77;4.30;;;;;;;16.40;100.00;99414.94;5013375;28;20053;-68
2023/07/27 06:56:22;;;;;;;15.57;4.65;;;;;;;16.48;100.00;99424.84;5030629;28;20187;-67
2023/07/27 06:58:50;;;;;;;13.50;4.30;;;;;;;16.46;100.00;99429.44;5030717;28;20448;-68
2023/07/27 07:01:17;;;;;;;13.48;5.18;;;;;;;16.49;100.00;99416.81;5023660;28;20915;-68
2023/07/27 07:03:43;;;;;;;12.93;4.25;;;;;;;16.50;100.00;99423.78;5026142;28;20049;-68
2023/07/27 07:06:10;;;;;;;16.45;6.07;;;;;;;16.39;100.00;99423.81;5029421;28;20357;-69
2023/07/27 07:08:37;;;;;;;14.93;5.35;;;;;;;16.13;100.00;99421.53;5023711;28;20048;-68
2023/07/27 07:11:04;;;;;;;14.35;4.60;;;;;;;16.41;100.00;99424.50;5017359;28;20152;-69
2023/07/27 07:13:30;;;;;;;12.07;4.20;;;;;;;16.60;100.00;99423.00;5025760;28;20381;-67
2023/07/27 07:15:57;;;;;;;12.07;4.40;;;;;;;16.61;100.00;99427.31;5035921;28;20067;-68
2023/07/27 07:18:23;;;;;;;16.70;5.28;;;;;;;16.30;100.00;99428.03;5029588;28;20131;-68
2023/07/27 07:20:50;;;;;;;22.00;5.95;;;;;;;16.19;100.00;99424.63;5011871;28;20415;-68
2023/07/27 07:23:19;;;;;;;13.35;4.38;;;;;;;16.34;100.00;99415.41;5030012;28;20049;-68
2023/07/27 07:25:45;;;;;;;14.25;4.28;;;;;;;16.36;100.00;99410.88;5029837;28;20498;-68
2023/07/27 07:28:12;;;;;;;16.85;5.22;;;;;;;16.31;100.00;99413.06;5029544;28;20049;-68
2023/07/27 07:30:40;;;;;;;15.27;5.05;;;;;;;16.40;100.00;99424.66;5019933;28;20115;-68
2023/07/27 07:33:08;;;;;;;12.65;4.55;;;;;;;16.36;100.00;99408.25;5021952;28;20080;-68
2023/07/27 07:35:38;;;;;;;17.38;5.75;;;;;;;16.64;100.00;99417.34;5030362;28;20041;-68
2023/07/27 07:38:06;;;;;;;15.70;5.43;;;;;;;16.52;100.00;99424.47;5029425;28;20100;-68
2023/07/27 07:40:33;;;;;;;17.00;4.93;;;;;;;16.60;100.00;99423.00;5026082;28;20052;-68
2023/07/27 07:43:00;;;;;;;12.85;4.00;;;;;;;16.71;100.00;99420.28;5029551;28;20057;-68
2023/07/27 07:45:27;;;;;;;16.13;4.72;;;;;;;16.70;100.00;99426.56;5027110;28;20049;-68
2023/07/27 07:47:54;;;;;;;13.18;3.95;;;;;;;16.74;100.00;99419.19;5029454;28;20665;-68
2023/07/27 07:50:21;;;;;;;15.82;4.97;;;;;;;16.91;100.00;99421.28;5026604;28;20050;-68
2023/07/27 07:52:48;;;;;;;14.98;4.65;;;;;;;16.83;100.00;99423.72;5028928;28;20049;-68
2023/07/27 07:55:17;;;;;;;17.02;4.80;;;;;;;16.77;100.00;99418.91;5027899;28;20045;-68
2023/07/27 07:57:44;;;;;;;17.38;4.93;;;;;;;16.76;100.00;99425.19;5019517;28;20053;-68
2023/07/27 08:00:11;;;;;;;19.38;5.25;;;;;;;16.83;100.00;99424.56;5021422;28;20046;-68
2023/07/27 08:02:40;;;;;;;17.17;5.28;;;;;;;16.76;100.00;99414.63;5022415;28;20057;-69
2023/07/27 08:05:08;;;;;;;22.23;5.75;;;;;;;16.66;100.00;99401.34;5028420;28;20057;-69
2023/07/27 08:07:35;;;;;;;15.88;5.35;;;;;;;16.57;100.00;99410.03;5019268;28;20042;-69
2023/07/27 08:10:03;;;;;;;19.10;5.43;;;;;;;16.83;100.00;99423.72;5022527;28;20057;-69
2023/07/27 08:12:30;;;;;;;18.05;5.00;;;;;;;16.78;100.00;99421.44;5028279;28;20099;-69
2023/07/27 08:14:56;;;;;;;12.20;4.20;;;;;;;16.73;100.00;99418.34;5023952;28;20050;-68
2023/07/27 08:17:23;;;;;;;22.90;6.13;;;;;;;16.63;100.00;99414.81;5028303;28;20135;-68
2023/07/27 08:19:50;;;;;;;11.82;4.35;;;;;;;16.65;100.00;99415.53;5027852;28;20088;-68
2023/07/27 08:22:16;;;;;;;15.45;5.45;;;;;;;16.66;100.00;99420.69;5021878;28;20424;-68
2023/07/27 08:24:43;;;;;;;16.25;5.90;;;;;;;16.67;100.00;99408.31;5025796;28;20068;-68
2023/07/27 08:27:11;;;;;;;19.52;4.95;;;;;;;16.61;100.00;99417.59;5031368;28;20049;-68
2023/07/27 08:29:38;;;;;;;16.70;5.05;;;;;;;16.54;100.00;99400.56;5032944;28;20045;-68
2023/07/27 08:32:05;;;;;;;17.73;5.18;;;;;;;16.44;100.00;99405.78;5029610;28;20051;-68
2023/07/27 08:34:31;;;;;;;23.40;5.28;;;;;;;16.52;100.00;99416.56;5034065;28;20240;-68
2023/07/27 08:36:58;;;;;;;15.40;5.53;;;;;;;16.48;100.00;99417.78;5041794;28;20407;-68
2023/07/27 08:39:25;;;;;;;18.77;4.78;;;;;;;16.47;100.00;99410.81;5031504;28;20045;-68
2023/07/27 08:41:52;;;;;;;18.55;5.40;;;;;;;16.40;100.00;99409.66;5023643;28;20115;-68
2023/07/27 08:44:19;;;;;;;18.00;4.93;;;;;;;16.33;100.00;99421.69;5025631;28;20065;-68
2023/07/27 08:46:47;;;;;;;20.48;4.18;;;;;;;16.37;100.00;99422.28;5027161;28;20136;-68
2023/07/27 08:49:15;;;;;;;14.95;4.32;;;;;;;16.52;100.00;99437.69;5032709;28;20128;-69
2023/07/27 08:51:45;;;;;;;15.45;4.82;;;;;;;16.55;100.00;99441.03;5017330;28;20392;-68
2023/07/27 08:54:12;;;;;;;14.65;4.88;;;;;;;16.43;100.00;99442.88;5044357;28;20049;-68
2023/07/27 08:56:39;;;;;;;18.60;5.03;;;;;;;16.51;100.00;99430.72;5032937;28;20479;-69
2023/07/27 08:59:06;;;;;;;19.23;4.65;;;;;;;16.73;100.00;99436.84;5032242;28;20042;-69
2023/07/27 09:01:32;;;;;;;19.40;4.78;;;;;;;16.84;100.00;99436.84;5027959;28;20051;-69
2023/07/27 09:04:00;;;;;;;15.35;4.70;;;;;;;16.94;100.00;99443.97;5032470;28;20103;-68
2023/07/27 09:06:44;;;;;;;18.60;5.43;;;;;;;17.05;100.00;99446.53;5030993;28;20046;-68
2023/07/27 09:09:17;;;;;;;14.35;5.20;;;;;;;17.00;100.00;99449.59;5027510;28;20495;-68
2023/07/27 09:11:46;;;;;;;13.40;4.75;;;;;;;16.99;100.00;99449.72;5026355;28;20053;-68
2023/07/27 09:14:18;;;;;;;14.52;4.50;;;;;;;16.87;100.00;99441.00;5031374;28;20049;-69
2023/07/27 09:16:47;;;;;;;18.80;5.00;;;;;;;17.13;100.00;99444.09;5014272;28;20041;-69
2023/07/27 09:19:16;;;;;;;14.75;4.97;;;;;;;17.09;100.00;99442.69;5014980;28;20041;-69
2023/07/27 09:21:52;;;;;;;17.38;4.65;;;;;;;17.17;100.00;99434.09;5027628;28;20060;-69
2023/07/27 09:24:23;;;;;;;18.15;5.40;;;;;;;17.15;100.00;99442.13;5031587;28;20049;-69
2023/07/27 09:26:52;;;;;;;20.23;5.13;;;;;;;17.17;100.00;99440.19;5029421;28;20049;-69
2023/07/27 09:29:20;;;;;;;11.30;3.88;;;;;;;17.00;100.00;99446.13;5031536;28;20046;-69
2023/07/27 09:31:52;;;;;;;14.20;3.97;;;;;;;17.09;100.00;99445.31;5030632;28;20112;-69
2023/07/27 09:34:20;;;;;;;14.02;3.80;;;;;;;17.10;100.00;99443.50;5030674;28;20053;-69
2023/07/27 09:36:47;;;;;;;13.65;5.20;;;;;;;16.98;100.00;99445.38;5030576;28;20077;-69
2023/07/27 09:39:17;;;;;;;11.55;4.07;;;;;;;16.91;100.00;99442.44;5023044;28;20048;-68
2023/07/27 09:41:45;;;;;;;9.23;3.95;;;;;;;16.86;100.00;99442.00;5027621;28;20049;-68
2023/07/27 09:44:16;;;;;;;12.10;4.30;;;;;;;17.00;100.00;99440.81;5029436;28;20049;-68
2023/07/27 09:46:47;;;;;;;11.13;4.82;;;;;;;16.99;100.00;99429.38;5032026;28;20066;-69
2023/07/27 09:49:15;;;;;;;12.40;4.03;;;;;;;17.03;100.00;99430.81;5014432;28;20156;-68
2023/07/27 09:51:42;;;;;;;14.07;4.10;;;;;;;16.87;100.00;99433.06;5029109;28;20046;-68
2023/07/27 09:54:11;;;;;;;10.23;3.50;;;;;;;16.97;100.00;99427.84;5030806;28;20049;-67
2023/07/27 09:56:38;;;;;;;10.32;3.95;;;;;;;16.92;100.00;99430.88;5030720;28;20053;-68
2023/07/27 09:59:05;;;;;;;11.70;4.10;;;;;;;16.81;100.00;99439.69;5032767;28;20055;-68
2023/07/27 10:01:33;;;;;;;10.85;3.78;;;;;;;17.07;100.00;99429.59;5027266;28;20045;-68
2023/07/27 10:03:59;;;;;;;12.32;4.15;;;;;;;16.99;100.00;99434.69;5031272;28;20060;-66
2023/07/27 10:06:28;;;;;;;10.35;3.90;;;;;;;16.86;100.00;99432.25;5029432;28;20157;-67
2023/07/27 10:08:56;;;;;;;9.98;3.85;;;;;;;16.94;100.00;99441.34;5028091;28;20049;-68
2023/07/27 10:11:52;;;;;;;14.18;4.32;;;;;;;17.11;100.00;99445.19;5024419;28;20511;-68
2023/07/27 10:14:19;;;;;;;11.10;4.20;;;;;;;17.05;100.00;99449.19;5008520;28;20049;-68
2023/07/27 10:17:10;;;;;;;8.95;3.40;;;;;;;17.22;100.00;99453.88;5029526;28;20459;-68
2023/07/27 10:19:40;;;;;;;18.58;4.93;;;;;;;17.01;100.00;99453.88;5021516;28;20044;-68
2023/07/27 10:22:18;;;;;;;9.85;3.60;;;;;;;16.94;100.00;99441.34;5024091;28;20132;-68
2023/07/27 10:25:03;;;;;;;9.63;3.83;;;;;;;17.21;100.00;99443.41;5026881;28;20132;-68
2023/07/27 10:27:54;;;;;;;8.65;2.92;;;;;;;17.19;100.00;99442.72;5028819;28;20049;-68
2023/07/27 10:30:21;;;;;;;8.35;3.03;;;;;;;17.11;100.00;99453.97;5023100;28;20510;-68
2023/07/27 10:33:09;;;;;;;10.73;3.17;;;;;;;17.15;100.00;99451.88;5026805;28;20045;-68
2023/07/27 10:36:02;;;;;;;8.93;3.30;;;;;;;17.11;100.00;99453.13;5034363;28;20299;-68
2023/07/27 10:38:30;;;;;;;;;;;;;;;17.04;100.00;99458.94;5028828;28;20052;-68
2023/07/27 10:41:13;;;;;;;7.93;2.85;;;;;;;16.94;100.00;99444.81;5029986;28;20367;-68
2023/07/27 10:44:08;;;;;;;9.85;3.00;;;;;;;17.02;100.00;99460.03;5030121;28;20049;-68
2023/07/27 10:46:36;;;;;;;7.97;2.80;;;;;;;16.94;100.00;99454.56;5030926;28;20077;-68
2023/07/27 10:49:12;;;;;;;8.15;2.42;;;;;;;16.81;100.00;99460.00;5008013;28;20049;-68
2023/07/27 10:51:39;;;;;;;6.68;2.58;;;;;;;16.87;100.00;99448.94;5012309;28;20065;-68
2023/07/27 10:54:05;;;;;;;6.75;2.65;;;;;;;16.85;100.00;99458.81;5031514;28;20136;-68
2023/07/27 10:56:32;;;;;;;7.60;2.42;;;;;;;16.80;100.00;99458.31;5030041;28;20056;-68
2023/07/27 10:59:01;;;;;;;6.32;2.30;;;;;;;16.73;100.00;99460.63;5029798;28;20056;-68
2023/07/27 11:01:33;;;;;;;5.10;1.60;;;;;;;16.84;100.00;99457.16;5024319;28;20056;-68
2023/07/27 11:04:00;;;;;;;7.68;1.98;;;;;;;16.66;100.00;99454.19;5029137;28;20136;-68
2023/07/27 11:06:29;;;;;;;6.80;2.33;;;;;;;16.62;100.00;99455.41;5029678;28;20423;-68
2023/07/27 11:08:56;;;;;;;4.70;1.58;;;;;;;16.75;100.00;99457.88;5002776;28;20087;-67
2023/07/27 11:11:29;;;;;;;6.70;2.05;;;;;;;16.80;100.00;99453.91;5017623;28;20050;-67
2023/07/27 11:14:03;;;;;;;;;;;;;;;16.96;100.00;99466.66;5030836;28;20059;-67
2023/07/27 11:16:30;;;;;;;;;;;;;;;16.76;100.00;99462.19;5031201;28;20351;-67
2023/07/27 11:18:57;;;;;;;9.30;3.40;;;;;;;16.60;100.00;99468.75;5031012;28;19924;-67
2023/07/27 11:21:24;;;;;;;7.75;2.50;;;;;;;16.57;100.00;99463.72;5017957;28;20057;-68
2023/07/27 11:23:51;;;;;;;6.43;2.13;;;;;;;16.73;100.00;99475.66;5018860;28;20045;-67
2023/07/27 11:26:18;;;;;;;8.18;2.60;;;;;;;16.60;100.00;99473.22;5029957;28;20054;-68
2023/07/27 11:28:45;;;;;;;5.88;2.30;;;;;;;16.64;100.00;99477.25;5030384;28;20507;-67